createdAt,value
2019-01-26T00:00:44.583Z,11.60
2019-01-26T00:03:13.205Z,11.50
2019-01-26T00:05:41.711Z,11.27
2019-01-26T00:08:10.224Z,11.43
2019-01-26T00:10:38.732Z,10.40
2019-01-26T00:13:07.195Z,10.93
2019-01-26T00:15:35.684Z,10.00
2019-01-26T00:18:04.411Z,9.03
2019-01-26T00:20:36.433Z,9.70
2019-01-26T00:23:03.013Z,9.33
2019-01-26T00:25:31.488Z,8.53
2019-01-26T00:28:00.008Z,9.20
2019-01-26T00:30:28.542Z,9.67
2019-01-26T00:32:56.981Z,9.60
2019-01-26T00:35:25.415Z,8.00
2019-01-26T00:37:53.870Z,8.43
2019-01-26T00:40:22.298Z,7.00
2019-01-26T00:42:50.735Z,8.40
2019-01-26T00:45:19.163Z,9.50
2019-01-26T00:47:47.634Z,8.70
2019-01-26T00:50:16.066Z,8.23
2019-01-26T00:52:44.518Z,8.17
2019-01-26T00:55:13.084Z,8.43
2019-01-26T00:57:41.587Z,6.93
2019-01-26T01:00:19.219Z,8.20
2019-01-26T01:02:47.649Z,8.13
2019-01-26T01:05:16.164Z,7.73
2019-01-26T01:07:44.668Z,8.30
2019-01-26T01:10:16.074Z,8.53
2019-01-26T01:12:44.677Z,8.53
2019-01-26T01:15:21.780Z,7.87
2019-01-26T01:17:50.231Z,8.63
2019-01-26T01:20:19.199Z,9.20
2019-01-26T01:22:47.735Z,8.47
2019-01-26T01:25:16.171Z,9.30
2019-01-26T01:27:44.598Z,9.67
2019-01-26T01:30:16.246Z,9.20
2019-01-26T01:32:44.759Z,7.70
2019-01-26T01:35:14.196Z,7.57
2019-01-26T01:37:42.808Z,7.40
2019-01-26T01:40:13.858Z,8.63
2019-01-26T01:42:42.827Z,7.57
2019-01-26T01:45:17.248Z,7.70
2019-01-26T01:47:45.739Z,8.40
2019-01-26T01:50:14.933Z,8.00
2019-01-26T01:52:43.433Z,7.33
2019-01-26T01:55:12.048Z,6.90
2019-01-26T01:57:40.472Z,7.27
2019-01-26T02:00:20.784Z,7.50
2019-01-26T02:02:49.224Z,7.70
2019-01-26T02:05:17.901Z,7.70
2019-01-26T02:07:46.323Z,7.03
2019-01-26T02:10:17.461Z,5.93
2019-01-26T02:12:45.908Z,7.00
2019-01-26T02:15:14.686Z,8.87
2019-01-26T02:17:43.113Z,6.23
2019-01-26T02:20:17.397Z,7.20
2019-01-26T02:22:45.975Z,7.30
2019-01-26T02:25:14.461Z,9.00
2019-01-26T02:27:44.363Z,7.40
2019-01-26T02:30:16.394Z,6.20
2019-01-26T02:32:44.834Z,5.00
2019-01-26T02:35:13.325Z,7.10
2019-01-26T02:37:42.869Z,5.50
2019-01-26T02:40:13.226Z,6.23
2019-01-26T02:42:41.668Z,6.00
2019-01-26T02:45:12.194Z,6.50
2019-01-26T02:47:40.640Z,6.10
2019-01-26T02:50:11.620Z,5.40
2019-01-26T02:52:40.129Z,6.80
2019-01-26T02:55:08.623Z,4.97
2019-01-26T02:57:37.060Z,4.77
2019-01-26T03:00:14.668Z,4.60
2019-01-26T03:02:43.113Z,5.43
2019-01-26T03:05:11.676Z,4.80
2019-01-26T03:07:40.115Z,5.43
2019-01-26T03:10:11.618Z,4.67
2019-01-26T03:12:40.058Z,4.70
2019-01-26T03:15:11.696Z,5.20
2019-01-26T03:17:40.142Z,4.73
2019-01-26T03:20:10.497Z,5.70
2019-01-26T03:22:38.971Z,5.87
2019-01-26T03:25:08.949Z,5.50
2019-01-26T03:27:37.383Z,6.03
2019-01-26T03:30:08.932Z,4.53
2019-01-26T03:32:37.433Z,5.13
2019-01-26T03:35:06.496Z,5.50
2019-01-26T03:37:34.962Z,4.40
2019-01-26T03:40:04.466Z,5.53
2019-01-26T03:42:32.899Z,3.87
2019-01-26T03:45:01.340Z,4.97
2019-01-26T03:47:29.842Z,5.70
2019-01-26T03:49:58.277Z,6.20
2019-01-26T03:52:26.711Z,5.33
2019-01-26T03:54:55.152Z,5.53
2019-01-26T03:57:23.583Z,4.70
2019-01-26T03:59:52.017Z,5.53
2019-01-26T04:02:20.516Z,5.20
2019-01-26T04:04:49.027Z,5.73
2019-01-26T04:07:17.475Z,4.27
2019-01-26T04:09:52.775Z,5.67
2019-01-26T04:12:21.201Z,5.60
2019-01-26T04:14:49.649Z,5.00
2019-01-26T04:17:21.899Z,6.43
2019-01-26T04:19:48.266Z,6.30
2019-01-26T04:22:16.777Z,5.97
2019-01-26T04:24:46.219Z,6.00
2019-01-26T04:27:14.694Z,6.40
2019-01-26T04:29:43.211Z,5.77
2019-01-26T04:32:11.785Z,6.00
2019-01-26T04:34:40.268Z,6.53
2019-01-26T04:37:08.821Z,6.03
2019-01-26T04:39:37.618Z,5.23
2019-01-26T04:42:06.462Z,6.80
2019-01-26T04:44:34.963Z,5.60
2019-01-26T04:47:04.889Z,7.40
2019-01-26T04:49:33.352Z,7.40
2019-01-26T04:52:01.792Z,7.63
2019-01-26T04:54:30.326Z,7.10
2019-01-26T04:56:58.807Z,6.80
2019-01-26T04:59:27.274Z,8.30
2019-01-26T05:01:55.722Z,7.57
2019-01-26T05:04:24.362Z,8.40
2019-01-26T05:06:52.811Z,6.77
2019-01-26T05:09:21.264Z,8.50
2019-01-26T05:11:49.911Z,9.10
2019-01-26T05:14:18.411Z,6.73
2019-01-26T05:16:46.994Z,9.60
2019-01-26T05:19:17.137Z,7.73
2019-01-26T05:21:45.647Z,8.03
2019-01-26T05:24:14.087Z,9.00
2019-01-26T05:26:42.549Z,7.87
2019-01-26T05:29:11.057Z,8.87
2019-01-26T05:31:39.503Z,6.83
2019-01-26T05:34:07.949Z,7.60
2019-01-26T05:36:36.405Z,8.53
2019-01-26T05:39:07.210Z,9.83
2019-01-26T05:41:35.721Z,9.50
2019-01-26T05:44:04.256Z,7.27
2019-01-26T05:46:32.714Z,8.03
2019-01-26T05:49:02.063Z,7.53
2019-01-26T05:51:30.528Z,9.27
2019-01-26T05:53:59.510Z,9.87
2019-01-26T05:56:28.612Z,10.33
2019-01-26T05:58:58.742Z,10.23
2019-01-26T06:01:27.389Z,8.77
2019-01-26T06:03:59.071Z,7.80
2019-01-26T06:06:30.978Z,8.07
2019-01-26T06:09:07.339Z,8.20
2019-01-26T06:11:37.117Z,7.70
2019-01-26T06:14:05.697Z,7.57
2019-01-26T06:16:34.134Z,7.70
2019-01-26T06:19:02.671Z,8.33
2019-01-26T06:21:31.212Z,6.80
2019-01-26T06:23:59.647Z,8.40
2019-01-26T06:26:28.183Z,7.07
2019-01-26T06:28:56.625Z,7.90
2019-01-26T06:31:25.099Z,7.47
2019-01-26T06:33:53.534Z,6.30
2019-01-26T06:36:21.987Z,7.10
2019-01-26T06:38:50.439Z,7.83
2019-01-26T06:41:18.863Z,7.43
2019-01-26T06:43:47.360Z,7.57
2019-01-26T06:46:15.903Z,8.00
2019-01-26T06:48:45.461Z,6.90
2019-01-26T06:51:13.910Z,7.30
2019-01-26T06:53:42.357Z,6.63
2019-01-26T06:56:10.811Z,6.63
2019-01-26T06:58:39.323Z,8.60
2019-01-26T07:01:07.800Z,8.10
2019-01-26T07:03:36.629Z,8.10
2019-01-26T07:06:15.553Z,8.30
2019-01-26T07:08:44.055Z,8.80
2019-01-26T07:11:12.481Z,8.87
2019-01-26T07:13:40.944Z,9.67
2019-01-26T07:16:11.592Z,8.53
2019-01-26T07:18:40.116Z,9.83
2019-01-26T07:21:08.564Z,9.17
2019-01-26T07:23:37.015Z,9.10
2019-01-26T07:26:05.471Z,8.90
2019-01-26T07:28:34.891Z,8.80
2019-01-26T07:31:03.382Z,9.33
2019-01-26T07:33:31.829Z,9.97
2019-01-26T07:36:00.280Z,9.17
2019-01-26T07:38:28.812Z,10.77
2019-01-26T07:40:57.376Z,9.07
2019-01-26T07:43:25.815Z,8.53
2019-01-26T07:45:54.277Z,9.10
2019-01-26T07:48:22.718Z,10.10
2019-01-26T07:50:51.190Z,6.73
2019-01-26T07:53:19.634Z,8.03
2019-01-26T07:55:48.079Z,8.60
2019-01-26T07:58:16.598Z,9.10
2019-01-26T08:00:45.060Z,9.70
2019-01-26T08:03:13.599Z,8.90
2019-01-26T08:05:42.060Z,8.73
2019-01-26T08:08:10.507Z,11.60
2019-01-26T08:10:39.079Z,7.67
2019-01-26T08:13:07.556Z,13.57
2019-01-26T08:15:36.091Z,13.33
2019-01-26T08:18:04.798Z,10.80
2019-01-26T08:20:33.245Z,9.90
2019-01-26T08:23:01.717Z,10.00
2019-01-26T08:25:30.165Z,7.30
2019-01-26T08:27:58.606Z,10.27
2019-01-26T08:30:27.080Z,8.07
2019-01-26T08:32:55.506Z,8.70
2019-01-26T08:35:24.037Z,7.93
2019-01-26T08:37:52.560Z,8.17
2019-01-26T08:40:22.384Z,7.80
2019-01-26T08:42:50.960Z,8.10
2019-01-26T08:45:19.416Z,6.70
2019-01-26T08:47:48.510Z,7.20
2019-01-26T08:50:21.948Z,7.43
2019-01-26T08:52:50.485Z,7.53
2019-01-26T08:55:19.005Z,7.10
2019-01-26T08:57:47.607Z,7.50
2019-01-26T09:00:20.782Z,8.00
2019-01-26T09:02:54.692Z,6.10
2019-01-26T09:05:37.056Z,7.00
2019-01-26T09:08:05.513Z,8.30
2019-01-26T09:10:33.949Z,6.40
2019-01-26T09:13:02.398Z,6.97
2019-01-26T09:15:30.828Z,7.07
2019-01-26T09:17:59.446Z,6.20
2019-01-26T09:20:27.873Z,7.80
2019-01-26T09:22:57.379Z,8.40
2019-01-26T09:25:25.816Z,8.87
2019-01-26T09:27:54.428Z,6.63
2019-01-26T09:30:22.930Z,8.40
2019-01-26T09:32:51.385Z,7.43
2019-01-26T09:35:19.836Z,7.47
2019-01-26T09:37:48.348Z,8.50
2019-01-26T09:40:21.295Z,8.73
2019-01-26T09:42:50.196Z,6.30
2019-01-26T09:45:19.876Z,7.00
2019-01-26T09:47:48.458Z,7.67
2019-01-26T09:50:17.543Z,7.20
2019-01-26T09:52:45.997Z,6.20
2019-01-26T09:55:16.946Z,6.67
2019-01-26T09:57:45.403Z,7.00
2019-01-26T10:00:21.913Z,7.13
2019-01-26T10:02:50.429Z,5.80
2019-01-26T10:05:19.092Z,6.43
2019-01-26T10:07:47.854Z,6.53
2019-01-26T10:10:18.544Z,12.40
2019-01-26T10:12:47.383Z,6.00
2019-01-26T10:15:25.016Z,6.10
2019-01-26T10:17:53.639Z,5.37
2019-01-26T10:20:27.932Z,5.53
2019-01-26T10:22:56.558Z,6.33
2019-01-26T10:25:25.052Z,4.10
2019-01-26T10:27:53.559Z,5.37
2019-01-26T10:30:26.607Z,5.30
2019-01-26T10:32:55.189Z,5.30
2019-01-26T10:35:25.300Z,4.63
2019-01-26T10:37:53.808Z,4.13
2019-01-26T10:40:39.952Z,4.73
2019-01-26T10:43:08.693Z,4.40
2019-01-26T10:45:37.514Z,4.40
2019-01-26T10:48:06.401Z,4.20
2019-01-26T10:50:34.956Z,4.67
2019-01-26T10:53:03.390Z,3.77
2019-01-26T10:55:31.932Z,5.30
2019-01-26T10:58:00.445Z,3.83
2019-01-26T11:00:29.049Z,5.70
2019-01-26T11:02:57.746Z,5.00
2019-01-26T11:05:26.539Z,5.50
2019-01-26T11:07:55.225Z,4.20
2019-01-26T11:10:23.705Z,4.40
2019-01-26T11:12:52.168Z,4.23
2019-01-26T11:15:20.724Z,5.17
2019-01-26T11:17:49.305Z,5.60
2019-01-26T11:20:17.945Z,5.00
2019-01-26T11:22:46.472Z,12.47
2019-01-26T11:25:15.443Z,5.93
2019-01-26T11:27:43.964Z,4.37
2019-01-26T11:30:17.750Z,5.53
2019-01-26T11:32:46.454Z,5.70
2019-01-26T11:35:20.687Z,7.00
2019-01-26T11:37:49.296Z,6.20
2019-01-26T11:40:25.169Z,5.60
2019-01-26T11:42:53.850Z,8.40
2019-01-26T11:45:26.991Z,6.27
2019-01-26T11:47:57.092Z,5.97
2019-01-26T11:50:27.375Z,5.60
2019-01-26T11:52:56.009Z,6.47
2019-01-26T11:55:26.621Z,6.70
2019-01-26T11:57:55.200Z,10.90
2019-01-26T12:00:43.735Z,8.30
2019-01-26T12:03:16.617Z,5.27
2019-01-26T12:05:46.813Z,5.57
2019-01-26T12:08:15.320Z,5.20
2019-01-26T12:10:43.927Z,4.33
2019-01-26T12:13:12.455Z,5.80
2019-01-26T12:15:41.057Z,6.20
2019-01-26T12:18:09.685Z,8.57
2019-01-26T12:20:38.282Z,4.80
2019-01-26T12:23:06.731Z,5.97
2019-01-26T12:25:35.234Z,6.20
2019-01-26T12:28:03.811Z,6.07
2019-01-26T12:30:32.404Z,4.70
2019-01-26T12:33:01.099Z,5.53
2019-01-26T12:35:29.628Z,5.17
2019-01-26T12:37:58.317Z,5.37
2019-01-26T12:40:26.948Z,4.43
2019-01-26T12:42:55.694Z,4.43
2019-01-26T12:45:24.513Z,4.90
2019-01-26T12:47:53.158Z,4.47
2019-01-26T12:50:21.831Z,6.17
2019-01-26T12:52:50.470Z,12.60
2019-01-26T12:55:20.648Z,16.00
2019-01-26T12:57:49.272Z,8.13
2019-01-26T13:00:25.731Z,7.57
2019-01-26T13:02:54.325Z,7.27
2019-01-26T13:05:23.164Z,9.10
2019-01-26T13:07:51.921Z,8.63
2019-01-26T13:10:29.596Z,8.67
2019-01-26T13:12:58.604Z,4.13
2019-01-26T13:15:27.391Z,4.50
2019-01-26T13:17:56.127Z,5.90
2019-01-26T13:20:24.865Z,3.30
2019-01-26T13:22:53.463Z,5.10
2019-01-26T13:25:22.263Z,4.37
2019-01-26T13:27:50.952Z,2.93
2019-01-26T13:30:22.505Z,4.13
2019-01-26T13:32:51.169Z,3.00
2019-01-26T13:35:19.918Z,4.60
2019-01-26T13:37:48.639Z,4.13
2019-01-26T13:40:25.822Z,4.67
2019-01-26T13:42:54.562Z,5.20
2019-01-26T13:45:23.288Z,4.67
2019-01-26T13:47:52.473Z,4.50
2019-01-26T13:50:21.341Z,3.63
2019-01-26T13:52:50.115Z,4.17
2019-01-26T13:55:23.277Z,3.63
2019-01-26T13:57:51.961Z,3.93
2019-01-26T14:00:29.235Z,6.73
2019-01-26T14:02:57.823Z,3.37
2019-01-26T14:05:26.523Z,3.97
2019-01-26T14:07:55.019Z,4.30
2019-01-26T14:10:25.075Z,4.23
2019-01-26T14:12:53.586Z,4.67
2019-01-26T14:15:25.863Z,5.47
2019-01-26T14:17:54.694Z,4.37
2019-01-26T14:20:26.101Z,8.47
2019-01-26T14:22:54.982Z,10.63
2019-01-26T14:25:23.703Z,6.07
2019-01-26T14:27:52.590Z,8.90
2019-01-26T14:30:26.888Z,5.93
2019-01-26T14:32:55.575Z,5.60
2019-01-26T14:35:24.581Z,4.47
2019-01-26T14:37:53.402Z,5.90
2019-01-26T14:40:22.219Z,12.03
2019-01-26T14:42:54.459Z,16.73
2019-01-26T14:45:21.225Z,14.43
2019-01-26T14:47:49.983Z,17.57
2019-01-26T14:50:19.421Z,26.50
2019-01-26T14:52:48.011Z,13.50
2019-01-26T14:55:27.820Z,12.57
2019-01-26T14:57:56.443Z,23.80
2019-01-26T15:00:33.087Z,10.30
2019-01-26T15:03:01.893Z,5.63
2019-01-26T15:05:30.667Z,4.70
2019-01-26T15:07:59.613Z,4.20
2019-01-26T15:10:28.315Z,3.70
2019-01-26T15:12:56.921Z,3.80
2019-01-26T15:15:25.715Z,4.73
2019-01-26T15:17:54.456Z,5.90
2019-01-26T15:20:28.895Z,3.93
2019-01-26T15:22:57.658Z,6.87
2019-01-26T15:25:26.372Z,3.80
2019-01-26T15:27:55.104Z,4.90
2019-01-26T15:30:32.450Z,4.23
2019-01-26T15:33:01.408Z,5.10
2019-01-26T15:35:30.211Z,5.77
2019-01-26T15:37:59.033Z,5.60
2019-01-26T15:40:27.845Z,5.10
2019-01-26T15:42:56.623Z,3.50
2019-01-26T15:45:27.970Z,4.07
2019-01-26T15:47:56.658Z,4.73
2019-01-26T15:50:25.412Z,4.23
2019-01-26T15:52:54.472Z,8.23
2019-01-26T15:55:26.688Z,11.00
2019-01-26T15:57:55.368Z,6.20
2019-01-26T16:00:32.745Z,4.27
2019-01-26T16:03:01.600Z,5.80
2019-01-26T16:05:30.417Z,12.73
2019-01-26T16:07:59.431Z,19.10
2019-01-26T16:10:28.291Z,5.63
2019-01-26T16:12:57.077Z,6.23
2019-01-26T16:15:28.215Z,4.97
2019-01-26T16:17:56.966Z,4.03
2019-01-26T16:20:25.852Z,4.37
2019-01-26T16:22:54.661Z,4.10
2019-01-26T16:25:23.627Z,4.30
2019-01-26T16:27:53.956Z,3.80
2019-01-26T16:30:28.156Z,5.20
2019-01-26T16:32:57.107Z,4.47
2019-01-26T16:35:25.943Z,10.60
2019-01-26T16:37:54.976Z,4.63
2019-01-26T16:40:29.077Z,6.40
2019-01-26T16:42:57.857Z,5.90
2019-01-26T16:45:29.502Z,6.70
2019-01-26T16:47:58.202Z,4.00
2019-01-26T16:50:28.985Z,6.47
2019-01-26T16:52:57.864Z,6.70
2019-01-26T16:55:27.089Z,4.63
2019-01-26T16:57:56.311Z,5.73
2019-01-26T17:00:42.700Z,5.20
2019-01-26T17:03:11.924Z,4.73
2019-01-26T17:05:41.107Z,4.93
2019-01-26T17:08:10.673Z,6.70
2019-01-26T17:10:39.574Z,6.57
2019-01-26T17:13:08.511Z,6.10
2019-01-26T17:15:37.292Z,6.07
2019-01-26T17:18:13.698Z,6.77
2019-01-26T17:20:40.359Z,7.70
2019-01-26T17:23:09.413Z,4.40
2019-01-26T17:25:38.023Z,4.90
2019-01-26T17:28:06.641Z,6.30
2019-01-26T17:30:40.189Z,5.57
2019-01-26T17:33:09.261Z,5.53
2019-01-26T17:35:38.005Z,4.00
2019-01-26T17:38:06.883Z,4.30
2019-01-26T17:40:35.509Z,4.10
2019-01-26T17:43:04.309Z,4.37
2019-01-26T17:45:32.931Z,4.10
2019-01-26T17:48:01.647Z,4.73
2019-01-26T17:50:30.636Z,4.27
2019-01-26T17:52:59.245Z,8.90
2019-01-26T17:55:29.068Z,5.67
2019-01-26T17:57:57.777Z,5.10
2019-01-26T18:00:33.027Z,5.37
2019-01-26T18:03:01.946Z,6.97
2019-01-26T18:05:30.821Z,5.03
2019-01-26T18:07:59.523Z,5.17
2019-01-26T18:10:28.700Z,5.57
2019-01-26T18:12:57.768Z,6.97
2019-01-26T18:15:26.549Z,5.07
2019-01-26T18:17:55.628Z,6.10
2019-01-26T18:20:29.571Z,5.20
2019-01-26T18:23:00.035Z,6.63
2019-01-26T18:25:30.240Z,4.90
2019-01-26T18:27:59.412Z,6.47
2019-01-26T18:30:30.484Z,5.60
2019-01-26T18:32:59.193Z,6.80
2019-01-26T18:35:28.382Z,6.23
2019-01-26T18:37:57.467Z,6.20
2019-01-26T18:40:30.259Z,7.00
2019-01-26T18:42:59.483Z,6.27
2019-01-26T18:45:32.809Z,5.70
2019-01-26T18:48:01.725Z,6.57
2019-01-26T18:50:33.476Z,7.27
2019-01-26T18:53:02.611Z,5.07
2019-01-26T18:55:31.668Z,5.50
2019-01-26T18:58:00.507Z,4.33
2019-01-26T19:00:32.328Z,4.20
2019-01-26T19:03:09.904Z,4.80
2019-01-26T19:05:40.013Z,5.17
2019-01-26T19:08:11.923Z,4.90
2019-01-26T19:10:41.131Z,4.57
2019-01-26T19:13:10.200Z,4.87
2019-01-26T19:15:39.556Z,7.47
2019-01-26T19:18:08.989Z,6.30
2019-01-26T19:20:37.815Z,4.90
2019-01-26T19:23:07.274Z,6.87
2019-01-26T19:25:36.240Z,5.23
2019-01-26T19:28:06.171Z,5.20
2019-01-26T19:30:35.461Z,5.00
2019-01-26T19:33:05.107Z,6.77
2019-01-26T19:35:34.588Z,4.97
2019-01-26T19:38:03.916Z,6.23
2019-01-26T19:40:33.260Z,5.07
2019-01-26T19:43:02.587Z,4.90
2019-01-26T19:45:31.891Z,4.90
2019-01-26T19:48:01.380Z,5.33
2019-01-26T19:50:30.769Z,5.27
2019-01-26T19:53:00.095Z,11.30
2019-01-26T19:55:29.607Z,11.43
2019-01-26T19:57:59.092Z,9.17
2019-01-26T20:00:28.565Z,8.43
2019-01-26T20:02:59.253Z,8.50
2019-01-26T20:05:29.041Z,8.10
2019-01-26T20:07:58.544Z,5.97
2019-01-26T20:10:27.823Z,6.20
2019-01-26T20:12:57.247Z,6.40
2019-01-26T20:15:26.785Z,5.20
2019-01-26T20:17:56.067Z,4.70
2019-01-26T20:20:31.219Z,4.97
2019-01-26T20:23:00.859Z,6.93
2019-01-26T20:25:30.380Z,5.07
2019-01-26T20:28:00.203Z,3.07
2019-01-26T20:30:34.305Z,7.37
2019-01-26T20:33:03.698Z,4.50
2019-01-26T20:35:32.694Z,5.30
2019-01-26T20:38:02.070Z,3.90
2019-01-26T20:40:31.096Z,3.90
2019-01-26T20:43:00.468Z,4.37
2019-01-26T20:45:32.855Z,6.13
2019-01-26T20:48:02.163Z,4.17
2019-01-26T20:50:31.840Z,4.13
2019-01-26T20:53:00.955Z,12.10
2019-01-26T20:55:32.293Z,3.20
2019-01-26T20:58:01.424Z,4.97
2019-01-26T21:00:31.952Z,3.67
2019-01-26T21:03:01.202Z,3.33
2019-01-26T21:05:30.570Z,4.73
2019-01-26T21:08:00.004Z,4.67
2019-01-26T21:10:30.631Z,4.03
2019-01-26T21:13:00.279Z,3.93
2019-01-26T21:15:29.747Z,3.90
2019-01-26T21:17:59.219Z,5.03
2019-01-26T21:20:28.744Z,3.93
2019-01-26T21:22:57.855Z,4.20
2019-01-26T21:25:27.412Z,4.40
2019-01-26T21:27:56.941Z,3.87
2019-01-26T21:30:27.747Z,4.03
2019-01-26T21:32:57.848Z,4.37
2019-01-26T21:35:29.160Z,4.30
2019-01-26T21:37:58.137Z,4.40
2019-01-26T21:40:41.872Z,3.73
2019-01-26T21:43:10.759Z,4.30
2019-01-26T21:45:40.168Z,3.47
2019-01-26T21:48:09.471Z,3.60
2019-01-26T21:50:40.544Z,2.97
2019-01-26T21:53:10.034Z,3.73
2019-01-26T21:55:39.111Z,3.00
2019-01-26T21:58:07.908Z,2.30
2019-01-26T22:01:28.007Z,2.80
2019-01-26T22:03:58.040Z,2.87
2019-01-26T22:06:27.388Z,3.00
2019-01-26T22:08:57.230Z,2.50
2019-01-26T22:11:26.031Z,2.70
2019-01-26T22:13:54.825Z,2.80
2019-01-26T22:16:23.472Z,2.97
2019-01-26T22:19:06.408Z,3.30
2019-01-26T22:21:34.984Z,3.37
2019-01-26T22:24:03.703Z,3.53
2019-01-26T22:27:10.214Z,3.47
2019-01-26T22:29:38.797Z,3.60
2019-01-26T22:32:07.394Z,3.63
2019-01-26T22:34:36.040Z,3.43
2019-01-26T22:37:04.696Z,4.17
2019-01-26T22:39:33.291Z,4.40
2019-01-26T22:42:01.877Z,2.80
2019-01-26T22:44:30.533Z,3.67
2019-01-26T22:46:59.123Z,3.90
2019-01-26T22:49:28.534Z,3.10
2019-01-26T22:51:57.123Z,4.17
2019-01-26T22:54:25.633Z,4.23
2019-01-26T22:56:54.046Z,3.40
2019-01-26T22:59:22.543Z,3.80
2019-01-26T23:01:51.290Z,3.20
2019-01-26T23:04:28.515Z,3.60
2019-01-26T23:07:00.001Z,3.50
2019-01-26T23:09:34.554Z,3.37
2019-01-26T23:12:11.952Z,3.90
2019-01-26T23:15:02.939Z,3.73
2019-01-26T23:17:49.022Z,4.17
2019-01-26T23:20:20.537Z,4.00
2019-01-26T23:22:52.087Z,4.10
2019-01-26T23:25:29.285Z,3.70
2019-01-26T23:28:18.810Z,4.23
2019-01-26T23:31:15.614Z,6.70
2019-01-26T23:33:44.962Z,3.97
2019-01-26T23:36:14.027Z,4.03
2019-01-26T23:38:42.434Z,4.30
2019-01-26T23:41:10.865Z,4.40
2019-01-26T23:43:39.272Z,4.80
2019-01-26T23:46:07.719Z,4.30
2019-01-26T23:48:36.113Z,4.07
2019-01-26T23:51:07.364Z,4.40
2019-01-26T23:53:35.788Z,4.77
2019-01-26T23:56:04.449Z,4.30
2019-01-26T23:58:32.864Z,4.63
